createdAt,value
2023-04-20T00:01:36.649Z,60.68
2023-04-20T00:04:04.569Z,62.38
2023-04-20T00:06:32.980Z,60.11
2023-04-20T00:09:01.190Z,61.16
2023-04-20T00:11:37.841Z,60.73
2023-04-20T00:14:05.382Z,59.87
2023-04-20T00:16:33.092Z,60.56
2023-04-20T00:19:01.152Z,61.23
2023-04-20T00:21:28.703Z,61.36
2023-04-20T00:24:00.916Z,60.81
2023-04-20T00:26:34.938Z,60.39
2023-04-20T00:29:03.630Z,60.66
2023-04-20T00:31:31.961Z,61.21
2023-04-20T00:33:59.986Z,59.63
2023-04-20T00:36:27.937Z,59.22
2023-04-20T00:38:55.579Z,60.82
2023-04-20T00:41:23.516Z,59.98
2023-04-20T00:43:54.698Z,59.08
2023-04-20T00:46:22.411Z,59.37
2023-04-20T00:48:53.916Z,59.61
2023-04-20T00:51:22.581Z,59.97
2023-04-20T00:53:50.040Z,60.11
2023-04-20T00:56:19.294Z,58.95
2023-04-20T00:58:47.106Z,59.03
2023-04-20T01:01:17.679Z,59.44
2023-04-20T01:03:46.966Z,58.71
2023-04-20T01:06:15.619Z,58.90
2023-04-20T01:08:47.741Z,58.39
2023-04-20T01:11:15.896Z,58.29
2023-04-20T01:13:43.317Z,58.08
2023-04-20T01:16:12.029Z,57.96
2023-04-20T01:18:48.456Z,57.91
2023-04-20T01:21:17.734Z,58.37
2023-04-20T01:23:46.138Z,61.18
2023-04-20T01:26:16.573Z,59.66
2023-04-20T01:28:44.494Z,60.05
2023-04-20T01:31:13.007Z,59.50
2023-04-20T01:33:41.281Z,59.51
2023-04-20T01:36:09.376Z,60.35
2023-04-20T01:38:37.201Z,59.49
2023-04-20T01:41:06.854Z,58.90
2023-04-20T01:43:35.886Z,58.70
2023-04-20T01:46:04.040Z,58.24
2023-04-20T01:48:31.582Z,58.11
2023-04-20T01:50:59.185Z,58.15
2023-04-20T01:53:27.136Z,57.79
2023-04-20T01:56:17.581Z,57.38
2023-04-20T01:58:47.939Z,58.09
2023-04-20T02:01:15.954Z,58.53
2023-04-20T02:03:44.562Z,59.04
2023-04-20T02:06:15.863Z,58.31
2023-04-20T02:08:44.823Z,58.12
2023-04-20T02:11:12.887Z,58.34
2023-04-20T02:13:41.777Z,58.20
2023-04-20T02:16:19.125Z,58.20
2023-04-20T02:18:47.187Z,57.81
2023-04-20T02:21:14.657Z,58.67
2023-04-20T02:23:44.372Z,58.62
2023-04-20T02:26:12.794Z,58.56
2023-04-20T02:28:41.944Z,58.21
2023-04-20T02:31:09.337Z,58.64
2023-04-20T02:33:37.796Z,58.29
2023-04-20T02:36:05.517Z,58.17
2023-04-20T02:38:33.706Z,58.47
2023-04-20T02:41:01.707Z,58.42
2023-04-20T02:43:30.155Z,58.52
2023-04-20T02:45:57.767Z,58.95
2023-04-20T02:48:25.548Z,59.04
2023-04-20T02:50:56.242Z,59.41
2023-04-20T02:53:24.991Z,59.51
2023-04-20T02:55:53.162Z,59.63
2023-04-20T02:58:21.395Z,59.63
2023-04-20T03:00:50.743Z,59.46
2023-04-20T03:03:20.089Z,59.37
2023-04-20T03:05:47.995Z,59.43
2023-04-20T03:08:17.008Z,60.20
2023-04-20T03:10:46.820Z,60.23
2023-04-20T03:13:15.220Z,60.51
2023-04-20T03:15:43.838Z,60.38
2023-04-20T03:18:13.256Z,60.33
2023-04-20T03:20:40.701Z,60.49
2023-04-20T03:23:08.594Z,60.64
2023-04-20T03:25:36.150Z,60.22
2023-04-20T03:28:04.218Z,60.13
2023-04-20T03:30:32.462Z,59.79
2023-04-20T03:33:00.418Z,59.64
2023-04-20T03:35:28.264Z,59.92
2023-04-20T03:37:55.941Z,58.89
2023-04-20T03:40:23.443Z,60.25
2023-04-20T03:42:51.029Z,60.06
2023-04-20T03:45:18.787Z,60.26
2023-04-20T03:47:46.223Z,60.38
2023-04-20T03:50:13.657Z,60.69
2023-04-20T03:52:41.318Z,60.49
2023-04-20T03:55:09.686Z,60.02
2023-04-20T03:57:38.107Z,60.74
2023-04-20T04:00:06.797Z,60.69
2023-04-20T04:02:45.986Z,60.31
2023-04-20T04:05:14.333Z,60.08
2023-04-20T04:07:41.759Z,60.38
2023-04-20T04:10:10.563Z,60.67
2023-04-20T04:12:39.111Z,59.86
2023-04-20T04:15:08.306Z,59.73
2023-04-20T04:17:36.726Z,59.82
2023-04-20T04:20:09.144Z,59.52
2023-04-20T04:22:37.113Z,59.78
2023-04-20T04:25:11.775Z,61.20
2023-04-20T04:27:53.712Z,60.26
2023-04-20T04:30:33.847Z,60.34
2023-04-20T04:33:04.993Z,60.40
2023-04-20T04:35:34.555Z,60.46
2023-04-20T04:38:02.320Z,60.76
2023-04-20T04:40:30.010Z,61.11
2023-04-20T04:42:58.541Z,61.05
2023-04-20T04:45:26.259Z,60.79
2023-04-20T04:47:54.007Z,59.43
2023-04-20T04:50:55.608Z,59.47
2023-04-20T04:53:22.960Z,57.28
2023-04-20T04:55:51.224Z,56.74
2023-04-20T04:58:21.051Z,55.22
2023-04-20T05:00:48.827Z,55.47
2023-04-20T05:03:16.941Z,55.53
2023-04-20T05:05:46.679Z,54.78
2023-04-20T05:08:18.341Z,54.84
2023-04-20T05:10:46.043Z,53.63
2023-04-20T05:13:15.646Z,53.07
2023-04-20T05:15:47.202Z,54.30
2023-04-20T05:18:32.738Z,54.84
2023-04-20T05:21:01.777Z,54.06
2023-04-20T05:23:29.473Z,52.67
2023-04-20T05:25:57.022Z,53.03
2023-04-20T05:28:44.706Z,53.66
2023-04-20T05:31:12.175Z,53.34
2023-04-20T05:33:40.457Z,52.84
2023-04-20T05:36:10.933Z,51.56
2023-04-20T05:38:38.822Z,50.77
2023-04-20T05:41:06.569Z,50.45
2023-04-20T05:43:34.700Z,49.54
2023-04-20T05:46:02.162Z,50.57
2023-04-20T05:48:30.269Z,51.40
2023-04-20T05:50:59.079Z,50.87
2023-04-20T05:53:26.918Z,50.52
2023-04-20T05:55:54.325Z,50.40
2023-04-20T05:58:22.021Z,51.92
2023-04-20T06:00:49.491Z,51.96
2023-04-20T06:03:17.635Z,53.51
2023-04-20T06:05:45.997Z,52.88
2023-04-20T06:08:13.424Z,51.47
2023-04-20T06:10:41.370Z,50.27
2023-04-20T06:13:08.811Z,50.39
2023-04-20T06:15:36.638Z,51.22
2023-04-20T06:18:04.555Z,49.81
2023-04-20T06:20:32.119Z,50.64
2023-04-20T06:22:59.580Z,50.41
2023-04-20T06:25:27.780Z,50.94
2023-04-20T06:27:55.150Z,49.95
2023-04-20T06:30:22.639Z,49.50
2023-04-20T06:32:50.649Z,49.67
2023-04-20T06:35:18.217Z,48.46
2023-04-20T06:37:45.604Z,48.71
2023-04-20T06:40:15.553Z,49.26
2023-04-20T06:42:44.042Z,49.78
2023-04-20T06:45:12.034Z,49.00
2023-04-20T06:47:39.811Z,49.18
2023-04-20T06:50:09.633Z,48.15
2023-04-20T06:52:41.094Z,48.73
2023-04-20T06:55:09.124Z,48.08
2023-04-20T06:57:38.684Z,48.66
2023-04-20T07:00:10.364Z,46.76
2023-04-20T07:02:46.062Z,47.39
2023-04-20T07:05:14.253Z,46.87
2023-04-20T07:07:42.437Z,46.14
2023-04-20T07:10:12.012Z,46.47
2023-04-20T07:12:42.308Z,45.03
2023-04-20T07:15:11.361Z,45.93
2023-04-20T07:17:39.129Z,45.32
2023-04-20T07:20:10.064Z,44.49
2023-04-20T07:38:20.836Z,42.37
2023-04-20T07:40:48.556Z,42.31
2023-04-20T07:43:15.913Z,42.19
2023-04-20T07:45:43.302Z,42.23
2023-04-20T07:48:14.036Z,42.49
2023-04-20T07:50:41.461Z,41.32
2023-04-20T07:53:08.909Z,41.04
2023-04-20T07:55:36.927Z,39.33
2023-04-20T07:58:04.525Z,40.29
2023-04-20T08:00:31.889Z,39.37
2023-04-20T08:03:17.090Z,39.37
2023-04-20T08:05:45.886Z,40.52
2023-04-20T08:08:13.375Z,39.46
2023-04-20T08:10:40.750Z,40.99
2023-04-20T08:13:08.479Z,41.06
2023-04-20T08:15:36.041Z,39.26
2023-04-20T08:18:03.663Z,37.93
2023-04-20T08:20:31.437Z,39.28
2023-04-20T08:22:59.502Z,40.20
2023-04-20T08:25:27.389Z,39.65
2023-04-20T08:27:55.146Z,38.90
2023-04-20T08:30:22.531Z,38.91
2023-04-20T08:32:51.049Z,38.90
2023-04-20T08:35:19.444Z,38.92
2023-04-20T08:37:46.825Z,39.48
2023-04-20T08:40:14.469Z,38.86
2023-04-20T08:42:42.145Z,38.50
2023-04-20T08:45:09.582Z,38.58
2023-04-20T08:47:37.023Z,37.70
2023-04-20T08:50:06.004Z,37.88
2023-04-20T08:52:54.255Z,37.85
2023-04-20T08:55:21.909Z,37.90
2023-04-20T08:57:50.841Z,37.19
2023-04-20T09:00:19.643Z,37.25
2023-04-20T09:02:55.809Z,36.14
2023-04-20T09:05:30.807Z,38.96
2023-04-20T09:08:01.203Z,37.43
2023-04-20T09:10:43.725Z,36.84
2023-04-20T09:13:22.693Z,37.06
2023-04-20T09:15:50.122Z,36.91
2023-04-20T09:18:18.842Z,36.34
2023-04-20T09:20:46.673Z,36.53
2023-04-20T09:23:15.874Z,37.11
2023-04-20T09:25:46.336Z,37.07
2023-04-20T09:28:14.314Z,36.90
2023-04-20T09:30:45.272Z,36.60
2023-04-20T09:33:14.430Z,35.67
2023-04-20T09:35:43.596Z,36.53
2023-04-20T09:38:15.770Z,37.26
2023-04-20T09:40:43.492Z,36.61
2023-04-20T09:43:16.446Z,35.77
2023-04-20T09:45:44.362Z,36.54
2023-04-20T09:48:12.135Z,38.04
2023-04-20T09:50:48.403Z,37.94
2023-04-20T09:53:17.730Z,35.99
2023-04-20T09:55:49.415Z,35.83
2023-04-20T09:58:19.640Z,35.95
2023-04-20T10:00:47.229Z,36.01
2023-04-20T10:03:19.448Z,35.03
2023-04-20T10:05:47.145Z,35.44
2023-04-20T10:08:14.841Z,35.77
2023-04-20T10:10:47.305Z,36.14
2023-04-20T10:13:16.079Z,35.47
2023-04-20T10:15:43.554Z,35.86
2023-04-20T10:18:18.548Z,34.23
2023-04-20T10:20:46.788Z,35.60
2023-04-20T10:23:18.736Z,34.66
2023-04-20T10:26:00.711Z,36.18
2023-04-20T10:28:41.678Z,36.54
2023-04-20T10:31:13.071Z,36.26
2023-04-20T10:33:54.427Z,35.59
2023-04-20T10:36:24.250Z,36.97
2023-04-20T10:38:52.635Z,38.04
2023-04-20T10:41:20.990Z,39.74
2023-04-20T10:43:48.673Z,38.79
2023-04-20T10:46:25.495Z,38.08
2023-04-20T10:48:53.950Z,37.29
2023-04-20T10:51:21.581Z,38.25
2023-04-20T10:54:19.022Z,35.17
2023-04-20T10:56:48.521Z,36.32
2023-04-20T10:59:18.427Z,34.07
2023-04-20T11:01:46.973Z,33.96
2023-04-20T11:04:17.808Z,35.59
2023-04-20T11:06:48.067Z,35.47
2023-04-20T11:09:34.898Z,34.55
2023-04-20T11:12:04.475Z,34.13
2023-04-20T11:14:34.094Z,34.21
2023-04-20T11:17:02.114Z,34.25
2023-04-20T11:19:32.024Z,33.97
2023-04-20T11:22:01.673Z,33.67
2023-04-20T11:24:30.940Z,33.88
2023-04-20T11:26:58.825Z,34.44
2023-04-20T11:29:34.006Z,36.89
2023-04-20T11:32:11.311Z,36.00
2023-04-20T11:34:39.783Z,36.75
2023-04-20T11:37:09.701Z,38.20
2023-04-20T11:39:37.772Z,36.57
2023-04-20T11:42:06.266Z,36.98
2023-04-20T11:44:36.441Z,36.50
2023-04-20T11:47:03.986Z,36.45
2023-04-20T11:49:31.814Z,34.11
2023-04-20T11:51:59.186Z,34.80
2023-04-20T11:54:28.397Z,34.33
2023-04-20T11:56:57.139Z,34.36
2023-04-20T11:59:25.288Z,33.09
2023-04-20T12:01:52.750Z,32.41
2023-04-20T12:04:20.611Z,33.20
2023-04-20T12:06:48.396Z,35.39
2023-04-20T12:09:15.896Z,36.86
2023-04-20T12:11:43.789Z,34.28
2023-04-20T12:14:11.180Z,34.38
2023-04-20T12:16:38.594Z,32.47
2023-04-20T12:19:06.199Z,32.92
2023-04-20T12:21:33.636Z,34.39
2023-04-20T12:24:01.227Z,36.20
2023-04-20T12:26:37.856Z,36.90
2023-04-20T12:29:10.728Z,35.50
2023-04-20T12:31:38.501Z,37.66
2023-04-20T12:34:06.634Z,37.01
2023-04-20T12:36:35.188Z,38.36
2023-04-20T12:39:03.749Z,35.93
2023-04-20T12:41:31.411Z,35.70
2023-04-20T12:43:58.777Z,36.79
2023-04-20T12:46:27.028Z,37.33
2023-04-20T12:48:54.469Z,34.74
2023-04-20T12:51:21.841Z,34.22
2023-04-20T12:53:49.486Z,35.40
2023-04-20T12:56:16.836Z,32.63
2023-04-20T12:58:44.569Z,34.52
2023-04-20T13:01:12.326Z,33.71
2023-04-20T13:03:40.680Z,33.34
2023-04-20T13:06:08.243Z,33.86
2023-04-20T13:08:37.231Z,34.19
2023-04-20T13:11:05.243Z,35.77
2023-04-20T13:13:32.626Z,35.07
2023-04-20T13:16:00.358Z,35.45
2023-04-20T13:18:27.768Z,35.75
2023-04-20T13:20:55.078Z,35.80
2023-04-20T13:23:22.760Z,35.65
2023-04-20T13:25:51.617Z,34.54
2023-04-20T13:28:19.375Z,34.91
2023-04-20T13:30:47.063Z,33.07
2023-04-20T13:33:14.473Z,32.04
2023-04-20T13:35:42.977Z,32.01
2023-04-20T13:38:10.882Z,33.26
2023-04-20T13:40:38.282Z,32.81
2023-04-20T13:43:05.673Z,33.73
2023-04-20T13:45:33.325Z,32.80
2023-04-20T13:48:00.824Z,34.60
2023-04-20T13:50:28.220Z,33.85
2023-04-20T13:52:55.884Z,34.98
2023-04-20T13:55:24.962Z,35.05
2023-04-20T13:57:53.016Z,35.91
2023-04-20T14:00:21.740Z,36.57
2023-04-20T14:02:49.453Z,36.16
2023-04-20T14:05:16.877Z,35.42
2023-04-20T14:07:44.285Z,33.13
2023-04-20T14:10:11.955Z,31.97
2023-04-20T14:12:41.990Z,30.26
2023-04-20T14:15:09.736Z,32.37
2023-04-20T14:17:37.432Z,33.16
2023-04-20T14:20:07.048Z,32.00
2023-04-20T14:22:36.618Z,31.77
2023-04-20T14:25:05.075Z,32.95
2023-04-20T14:27:32.608Z,31.91
2023-04-20T14:30:00.053Z,31.08
2023-04-20T14:32:27.798Z,30.93
2023-04-20T14:34:55.227Z,31.91
2023-04-20T14:37:24.960Z,29.89
2023-04-20T14:39:52.885Z,30.73
2023-04-20T14:42:21.258Z,28.98
2023-04-20T14:44:48.983Z,29.41
2023-04-20T14:47:16.599Z,29.43
2023-04-20T14:49:44.602Z,29.32
2023-04-20T14:52:12.181Z,29.42
2023-04-20T14:54:39.864Z,30.14
2023-04-20T14:57:07.247Z,30.56
2023-04-20T14:59:34.574Z,30.84
2023-04-20T15:02:03.360Z,30.40
2023-04-20T15:04:31.222Z,29.55
2023-04-20T15:31:50.966Z,32.17
2023-04-20T15:34:18.917Z,33.05
2023-04-20T15:36:46.490Z,30.69
2023-04-20T15:39:13.909Z,32.52
2023-04-20T15:41:41.621Z,35.36
2023-04-20T15:44:08.985Z,31.81
2023-04-20T15:46:38.462Z,31.60
2023-04-20T15:49:06.253Z,32.11
2023-04-20T15:51:33.613Z,32.52
2023-04-20T15:54:01.740Z,33.80
2023-04-20T15:56:29.401Z,31.48
2023-04-20T15:58:56.749Z,32.77
2023-04-20T16:01:24.138Z,32.48
2023-04-20T16:03:52.021Z,36.91
2023-04-20T16:06:19.597Z,37.74
2023-04-20T16:08:49.541Z,33.64
2023-04-20T16:11:17.268Z,33.39
2023-04-20T16:13:44.768Z,38.55
2023-04-20T16:16:12.268Z,35.60
2023-04-20T16:18:40.045Z,35.33
2023-04-20T16:21:07.490Z,31.47
2023-04-20T16:23:34.827Z,31.72
2023-04-20T16:26:02.969Z,36.33
2023-04-20T16:28:30.849Z,36.65
2023-04-20T16:30:58.960Z,36.74
2023-04-20T16:33:27.061Z,32.68
2023-04-20T16:35:54.424Z,37.84
2023-04-20T16:38:22.658Z,30.79
2023-04-20T16:40:52.536Z,32.69
2023-04-20T16:43:19.921Z,34.18
2023-04-20T16:45:48.413Z,34.24
2023-04-20T16:48:16.103Z,35.58
2023-04-20T16:50:43.903Z,35.56
2023-04-20T16:53:11.343Z,35.11
2023-04-20T16:55:39.081Z,35.71
2023-04-20T16:58:06.527Z,36.22
2023-04-20T17:00:34.032Z,36.18
2023-04-20T17:03:06.910Z,37.16
2023-04-20T17:05:39.014Z,37.42
2023-04-20T17:08:10.356Z,37.99
2023-04-20T17:10:38.536Z,36.73
2023-04-20T17:13:06.094Z,36.85
2023-04-20T17:15:33.993Z,36.79
2023-04-20T17:18:01.645Z,36.87
2023-04-20T17:20:29.056Z,37.17
2023-04-20T17:22:56.966Z,37.02
2023-04-20T17:25:24.694Z,37.13
2023-04-20T17:27:52.121Z,37.38
2023-04-20T17:30:21.178Z,38.97
2023-04-20T17:32:48.579Z,37.81
2023-04-20T17:35:16.042Z,37.69
2023-04-20T17:37:44.123Z,38.20
2023-04-20T17:40:11.727Z,37.97
2023-04-20T17:42:40.668Z,38.78
2023-04-20T17:45:09.458Z,39.10
2023-04-20T17:47:37.167Z,38.71
2023-04-20T17:50:04.908Z,39.41
2023-04-20T17:52:32.980Z,39.16
2023-04-20T17:55:00.941Z,39.67
2023-04-20T17:57:29.042Z,39.33
2023-04-20T17:59:57.406Z,39.59
2023-04-20T18:02:25.858Z,40.03
2023-04-20T18:04:57.624Z,40.17
2023-04-20T18:07:25.549Z,40.18
2023-04-20T18:09:52.880Z,41.06
2023-04-20T18:12:21.150Z,41.32
2023-04-20T18:14:48.809Z,41.48
2023-04-20T18:17:16.702Z,42.53
2023-04-20T18:19:44.887Z,42.78
2023-04-20T18:22:12.819Z,42.61
2023-04-20T18:24:41.555Z,42.68
2023-04-20T18:27:09.929Z,42.58
2023-04-20T18:29:38.161Z,43.04
2023-04-20T18:32:05.951Z,41.73
2023-04-20T18:34:34.803Z,41.01
2023-04-20T18:37:03.149Z,39.98
2023-04-20T18:39:31.254Z,39.99
2023-04-20T18:41:59.324Z,39.03
2023-04-20T18:44:29.248Z,39.55
2023-04-20T18:46:57.310Z,40.09
2023-04-20T18:49:26.671Z,40.26
2023-04-20T18:51:54.532Z,40.79
2023-04-20T18:54:22.671Z,40.85
2023-04-20T18:56:51.094Z,40.94
2023-04-20T18:59:19.186Z,38.90
2023-04-20T19:01:49.038Z,41.67
2023-04-20T19:04:18.416Z,41.57
2023-04-20T19:06:46.414Z,40.91
2023-04-20T19:09:16.409Z,40.75
2023-04-20T19:11:44.956Z,40.51
2023-04-20T19:14:12.910Z,40.81
2023-04-20T19:16:41.480Z,41.81
2023-04-20T19:19:11.043Z,42.42
2023-04-20T19:21:39.540Z,41.95
2023-04-20T19:24:08.305Z,42.93
2023-04-20T19:26:37.502Z,42.30
2023-04-20T19:29:05.659Z,42.04
2023-04-20T19:31:38.875Z,42.34
2023-04-20T19:34:08.972Z,42.49
2023-04-20T19:36:37.070Z,42.56
2023-04-20T19:39:17.629Z,42.62
2023-04-20T19:41:46.144Z,43.02
2023-04-20T19:44:15.069Z,43.98
2023-04-20T19:46:44.851Z,44.22
2023-04-20T19:49:14.102Z,45.33
2023-04-20T19:51:42.362Z,44.30
2023-04-20T19:54:11.115Z,44.96
2023-04-20T19:56:39.687Z,45.12
2023-04-20T19:59:08.026Z,44.64
2023-04-20T20:01:37.360Z,45.26
2023-04-20T20:04:05.721Z,44.47
2023-04-20T20:06:34.971Z,44.87
2023-04-20T20:09:04.099Z,45.09
2023-04-20T20:11:33.631Z,44.85
2023-04-20T20:14:01.855Z,45.07
2023-04-20T20:16:29.454Z,45.93
2023-04-20T20:18:59.827Z,46.50
2023-04-20T20:21:27.458Z,46.42
2023-04-20T20:23:55.004Z,46.47
2023-04-20T20:26:23.038Z,46.98
2023-04-20T20:28:50.983Z,46.89
2023-04-20T20:31:19.301Z,46.93
2023-04-20T20:33:47.301Z,47.67
2023-04-20T20:36:17.911Z,47.24
2023-04-20T20:38:45.932Z,47.24
2023-04-20T20:41:13.668Z,47.74
2023-04-20T20:43:43.827Z,47.68
2023-04-20T20:46:11.497Z,48.28
2023-04-20T20:48:39.183Z,48.50
2023-04-20T20:51:06.578Z,48.57
2023-04-20T20:53:34.002Z,48.68
2023-04-20T20:56:01.967Z,49.01
2023-04-20T20:58:29.322Z,49.16
2023-04-20T21:00:56.864Z,49.40
2023-04-20T21:03:24.857Z,49.73
2023-04-20T21:05:52.463Z,49.16
2023-04-20T21:08:19.884Z,49.35
2023-04-20T21:10:47.806Z,49.34
2023-04-20T21:13:15.848Z,48.62
2023-04-20T21:15:43.799Z,49.15
2023-04-20T21:18:11.974Z,49.35
2023-04-20T21:20:39.395Z,48.83
2023-04-20T21:23:06.770Z,47.27
2023-04-20T21:25:34.398Z,47.64
2023-04-20T21:28:20.347Z,46.36
2023-04-20T21:30:47.875Z,47.59
2023-04-20T21:33:15.373Z,47.89
2023-04-20T21:35:42.824Z,48.24
2023-04-20T21:38:10.808Z,47.81
2023-04-20T21:40:38.251Z,48.63
2023-04-20T21:43:05.684Z,48.40
2023-04-20T21:45:33.336Z,48.82
2023-04-20T21:48:00.782Z,48.39
2023-04-20T21:50:28.862Z,48.87
2023-04-20T21:52:56.591Z,48.74
2023-04-20T21:55:23.984Z,48.64
2023-04-20T21:57:51.379Z,48.74
2023-04-20T22:00:20.202Z,48.53
2023-04-20T22:02:49.337Z,48.69
2023-04-20T22:05:17.728Z,49.25
2023-04-20T22:07:45.969Z,49.73
2023-04-20T22:10:13.713Z,49.90
2023-04-20T22:12:42.302Z,49.51
2023-04-20T22:15:11.807Z,50.08
2023-04-20T22:17:40.600Z,50.36
2023-04-20T22:20:10.010Z,50.35
2023-04-20T22:22:37.992Z,50.20
2023-04-20T22:25:07.618Z,50.51
2023-04-20T22:27:35.869Z,50.71
2023-04-20T22:30:04.779Z,51.35
2023-04-20T22:32:32.480Z,51.06
2023-04-20T22:34:59.849Z,50.84
2023-04-20T22:37:27.201Z,50.87
2023-04-20T22:39:57.203Z,50.67
2023-04-20T22:42:25.353Z,50.40
2023-04-20T22:44:52.713Z,50.96
2023-04-20T22:47:20.484Z,51.10
2023-04-20T22:49:49.058Z,51.03
2023-04-20T22:52:16.434Z,51.18
2023-04-20T22:54:48.178Z,50.66
2023-04-20T22:57:16.194Z,50.58
2023-04-20T22:59:44.145Z,50.97
2023-04-20T23:02:11.554Z,51.24
2023-04-20T23:04:39.298Z,51.50
2023-04-20T23:07:08.223Z,51.30
2023-04-20T23:09:41.118Z,51.72
2023-04-20T23:12:09.784Z,52.04
2023-04-20T23:14:42.684Z,52.04
2023-04-20T23:17:10.666Z,51.99
2023-04-20T23:19:38.518Z,51.88
2023-04-20T23:22:08.890Z,51.80
2023-04-20T23:24:36.657Z,51.72
2023-04-20T23:27:05.317Z,52.73
2023-04-20T23:29:33.162Z,51.82
2023-04-20T23:32:01.421Z,52.34
2023-04-20T23:34:28.922Z,51.98
2023-04-20T23:36:56.657Z,51.80
2023-04-20T23:39:24.319Z,51.85
2023-04-20T23:41:51.720Z,52.26
2023-04-20T23:44:19.096Z,51.95
2023-04-20T23:46:46.745Z,51.27
2023-04-20T23:49:14.122Z,51.77
2023-04-20T23:51:42.094Z,51.55
2023-04-20T23:54:09.736Z,51.47
2023-04-20T23:56:37.130Z,51.43
2023-04-20T23:59:05.538Z,51.30
